Time;durP1;ratioP1;P1;durP2;ratioP2;P2;SDS_P1;SDS_P2;PMS_P1;PMS_P2;Temp;Humidity;BMP_temperature;BMP_pressure;BME280_temperature;BME280_humidity;BME280_pressure;Samples;Min_cycle;Max_cycle;Signal;HPM_P1;HPM_P2
2022/12/26 00:01:26;;;;;;;85.17;27.63;;;8.60;99.90;;;;;;4947567;28;20425;-76
2022/12/26 00:03:52;;;;;;;67.30;26.75;;;8.80;99.90;;;;;;4948148;28;20779;-77
2022/12/26 00:06:24;;;;;;;56.80;25.83;;;8.90;99.90;;;;;;4939325;28;20439;-77
2022/12/26 00:08:51;;;;;;;53.53;25.23;;;8.80;99.90;;;;;;4946303;28;20607;-75
2022/12/26 00:11:17;;;;;;;53.42;24.80;;;8.60;99.90;;;;;;4948473;28;20421;-75
2022/12/26 00:13:44;;;;;;;58.50;25.92;;;8.60;99.90;;;;;;4948185;28;20525;-75
2022/12/26 00:16:10;;;;;;;54.25;25.63;;;8.80;99.90;;;;;;4945004;28;20441;-75
2022/12/26 00:18:37;;;;;;;60.95;26.83;;;8.70;99.90;;;;;;4963400;28;20501;-75
2022/12/26 00:21:03;;;;;;;56.70;26.02;;;8.80;99.90;;;;;;4948395;28;20788;-74
2022/12/26 00:23:31;;;;;;;55.65;25.23;;;8.80;99.90;;;;;;4943758;28;20424;-75
2022/12/26 00:26:11;;;;;;;53.17;23.70;;;8.80;99.90;;;;;;4944342;29;20800;-75
2022/12/26 00:28:37;;;;;;;53.80;24.33;;;8.70;99.90;;;;;;4942005;29;20518;-76
2022/12/26 00:31:10;;;;;;;53.05;23.85;;;8.80;99.90;;;;;;4947085;29;21018;-75
2022/12/26 00:33:36;;;;;;;53.53;23.40;;;8.90;99.90;;;;;;4961208;28;20438;-76
2022/12/26 00:36:08;;;;;;;47.80;23.17;;;8.80;99.90;;;;;;4947323;28;20477;-75
2022/12/26 00:38:36;;;;;;;55.72;26.48;;;8.70;99.90;;;;;;4945463;29;20438;-75
2022/12/26 00:41:03;;;;;;;61.03;30.80;;;8.80;99.90;;;;;;4950132;28;20832;-77
2022/12/26 00:43:29;;;;;;;60.30;27.40;;;8.80;99.90;;;;;;4957891;28;20469;-76
2022/12/26 00:45:55;;;;;;;45.90;23.33;;;8.80;99.90;;;;;;4947542;28;20416;-76
2022/12/26 00:48:20;;;;;;;51.30;24.45;;;8.70;99.90;;;;;;4949348;28;20505;-76
2022/12/26 00:50:46;;;;;;;55.37;26.03;;;8.70;99.90;;;;;;4949486;28;20502;-75
2022/12/26 00:53:12;;;;;;;63.17;24.83;;;8.80;99.90;;;;;;4946467;28;20472;-75
2022/12/26 00:55:38;;;;;;;52.85;22.95;;;8.60;99.90;;;;;;4941637;29;20442;-74
2022/12/26 00:58:04;;;;;;;50.65;23.40;;;8.60;99.90;;;;;;4947443;28;20498;-75
2022/12/26 01:00:29;;;;;;;45.90;23.17;;;8.80;99.90;;;;;;4948246;28;20433;-74
2022/12/26 01:02:55;;;;;;;51.57;23.87;;;8.80;99.90;;;;;;4947501;28;20792;-76
2022/12/26 01:05:21;;;;;;;53.40;23.90;;;8.60;99.90;;;;;;4960961;28;20441;-75
2022/12/26 01:07:46;;;;;;;56.10;26.17;;;8.70;99.90;;;;;;4929710;29;20445;-75
2022/12/26 01:10:12;;;;;;;60.87;25.63;;;8.80;99.90;;;;;;4947022;28;21016;-74
2022/12/26 01:12:38;;;;;;;59.20;24.80;;;8.60;99.90;;;;;;4944261;28;20568;-75
2022/12/26 01:15:06;;;;;;;70.83;26.73;;;8.80;99.90;;;;;;4946941;28;20438;-75
2022/12/26 01:17:32;;;;;;;63.38;24.80;;;8.80;99.90;;;;;;4945756;29;20560;-75
2022/12/26 01:19:58;;;;;;;63.55;26.35;;;8.60;99.90;;;;;;4947793;28;20497;-75
2022/12/26 01:22:25;;;;;;;68.85;27.88;;;8.70;99.90;;;;;;4930633;28;20431;-75
2022/12/26 01:24:55;;;;;;;59.72;25.42;;;8.70;99.90;;;;;;4942513;28;20443;-76
2022/12/26 01:27:23;;;;;;;64.95;26.20;;;8.60;99.90;;;;;;4940290;29;20437;-76
2022/12/26 01:29:48;;;;;;;60.83;24.97;;;8.70;99.90;;;;;;4944240;28;20437;-75
2022/12/26 01:32:14;;;;;;;61.70;24.87;;;8.50;99.90;;;;;;4946305;28;20504;-75
2022/12/26 01:34:40;;;;;;;56.97;24.63;;;8.50;99.90;;;;;;4947526;28;20512;-75
2022/12/26 01:37:06;;;;;;;71.13;25.08;;;8.70;99.90;;;;;;4946561;28;20415;-74
2022/12/26 01:39:32;;;;;;;62.42;24.45;;;8.70;99.90;;;;;;4945885;28;20448;-74
2022/12/26 01:41:57;;;;;;;61.70;22.75;;;8.70;99.90;;;;;;4946425;28;20429;-74
2022/12/26 01:45:20;;;;;;;56.40;23.42;;;8.60;99.90;;;;;;4944636;28;20524;-76
2022/12/26 01:47:52;;;;;;;63.83;23.33;;;8.70;99.90;;;;;;4935376;28;20510;-75
2022/12/26 01:50:30;;;;;;;59.40;21.60;;;8.70;99.90;;;;;;4946314;28;20493;-75
2022/12/26 01:53:00;;;;;;;51.43;20.97;;;8.70;99.90;;;;;;4942437;28;20465;-74
2022/12/26 01:55:28;;;;;;;52.60;21.27;;;8.70;99.90;;;;;;4962170;28;20521;-74
2022/12/26 01:58:01;;;;;;;53.00;21.50;;;8.70;99.90;;;;;;4931468;28;20494;-75
2022/12/26 02:00:27;;;;;;;51.60;21.47;;;8.70;99.90;;;;;;4935309;28;20442;-75
2022/12/26 02:05:38;;;;;;;44.72;19.05;;;8.70;99.90;;;;;;4947139;29;20426;-76
2022/12/26 02:08:32;;;;;;;41.60;18.92;;;8.70;99.90;;;;;;4945657;28;20442;-75
2022/12/26 02:11:12;;;;;;;35.45;16.02;;;8.60;99.90;;;;;;4943411;29;20433;-76
2022/12/26 02:13:38;;;;;;;36.28;16.33;;;8.70;99.90;;;;;;4936541;28;20434;-74
2022/12/26 02:16:07;;;;;;;31.63;15.10;;;8.70;99.90;;;;;;4958839;28;20516;-75
2022/12/26 02:18:32;;;;;;;27.20;14.02;;;8.80;99.90;;;;;;4940774;28;20465;-73
2022/12/26 02:21:33;;;;;;;26.20;14.50;;;8.60;99.90;;;;;;4945058;29;20473;-73
2022/12/26 02:24:44;;;;;;;27.70;14.55;;;8.70;99.90;;;;;;4905540;29;20434;-75
2022/12/26 02:27:42;;;;;;;31.50;16.52;;;8.60;99.90;;;;;;4928926;29;20446;-76
2022/12/26 02:30:39;;;;;;;24.25;15.55;;;8.70;99.90;;;;;;4937286;28;20556;-75
2022/12/26 02:33:26;;;;;;;30.45;16.92;;;8.60;99.90;;;;;;4946269;28;20444;-77
2022/12/26 02:36:07;;;;;;;30.67;19.17;;;8.70;99.90;;;;;;4929998;29;20438;-75
2022/12/26 02:39:11;;;;;;;30.63;19.85;;;8.90;99.90;;;;;;4929458;29;20880;-75
2022/12/26 02:41:46;;;;;;;30.10;19.65;;;8.70;99.90;;;;;;4876333;29;20446;-74
2022/12/26 02:47:22;;;;;;;33.80;22.02;;;8.70;99.90;;;;;;4918005;28;20446;-75
2022/12/26 03:13:18;;;;;;;40.85;26.73;;;9.00;99.90;;;;;;4945542;28;20425;-74
2022/12/26 03:18:43;;;;;;;40.03;25.75;;;8.90;99.90;;;;;;4947451;28;20951;-76
2022/12/26 03:21:10;;;;;;;44.95;25.88;;;9.00;99.90;;;;;;4923598;29;20664;-75
2022/12/26 03:23:40;;;;;;;50.25;27.90;;;9.00;99.90;;;;;;4921865;28;20927;-76
2022/12/26 03:26:39;;;;;;;45.13;27.00;;;9.00;99.90;;;;;;4961596;28;20437;-75
2022/12/26 03:31:55;;;;;;;44.67;27.73;;;9.00;99.90;;;;;;4931863;29;20437;-75
2022/12/26 03:34:21;;;;;;;43.03;26.73;;;8.90;99.90;;;;;;4950256;29;20436;-75
2022/12/26 03:37:02;;;;;;;46.78;27.65;;;9.00;99.90;;;;;;4948109;28;20833;-76
2022/12/26 04:44:16;;;;;;;34.47;25.35;;;8.70;99.90;;;;;;4930726;29;20836;-77
2022/12/26 04:46:46;;;;;;;35.88;24.60;;;8.70;99.90;;;;;;4931523;29;20442;-75
2022/12/26 04:52:02;;;;;;;31.50;23.90;;;8.60;99.90;;;;;;4929224;29;20500;-77
2022/12/26 04:54:27;;;;;;;31.25;23.58;;;8.60;99.90;;;;;;4948398;29;20426;-75
2022/12/26 04:56:53;;;;;;;29.00;22.40;;;8.60;99.90;;;;;;4931220;28;20440;-75
2022/12/26 04:59:19;;;;;;;29.33;22.90;;;8.80;99.90;;;;;;4915686;29;20444;-76
2022/12/26 05:10:09;;;;;;;26.90;21.73;;;8.50;99.90;;;;;;4922661;29;20456;-75
2022/12/26 05:12:34;;;;;;;27.13;22.60;;;8.50;99.90;;;;;;4930159;29;20419;-76
2022/12/26 05:15:00;;;;;;;28.50;22.38;;;8.40;99.90;;;;;;4947061;29;20432;-75
2022/12/26 05:28:40;;;;;;;28.13;22.63;;;8.50;99.90;;;;;;4946027;28;20517;-76
2022/12/26 05:31:07;;;;;;;26.83;23.83;;;8.60;99.90;;;;;;4930018;29;20528;-74
2022/12/26 05:36:20;;;;;;;30.30;23.85;;;8.50;99.90;;;;;;4937874;28;20435;-75
2022/12/26 05:38:47;;;;;;;30.58;24.98;;;8.50;99.90;;;;;;4899371;29;20456;-76
2022/12/26 05:41:13;;;;;;;30.05;24.38;;;8.50;99.90;;;;;;4944613;29;20457;-75
2022/12/26 05:43:39;;;;;;;29.70;24.58;;;8.70;99.90;;;;;;4947253;29;20432;-76
2022/12/26 05:46:05;;;;;;;28.60;23.85;;;8.50;99.90;;;;;;4929999;29;20441;-75
2022/12/26 05:48:30;;;;;;;27.10;22.45;;;8.60;99.90;;;;;;4947103;29;21021;-75
2022/12/26 05:51:00;;;;;;;31.98;24.67;;;8.50;99.90;;;;;;4946414;28;20566;-77
2022/12/26 05:53:27;;;;;;;27.85;23.20;;;8.60;99.90;;;;;;4954176;28;20433;-77
2022/12/26 05:55:53;;;;;;;26.92;22.98;;;8.60;99.90;;;;;;4946856;28;20469;-77
2022/12/26 05:58:19;;;;;;;26.30;23.50;;;8.60;99.90;;;;;;4946435;29;20417;-77
2022/12/26 06:00:44;;;;;;;28.07;23.60;;;8.60;99.90;;;;;;4944827;28;20509;-77
2022/12/26 06:03:10;;;;;;;25.53;22.63;;;8.70;99.90;;;;;;4941699;29;20499;-76
2022/12/26 06:05:36;;;;;;;24.23;20.73;;;8.60;99.90;;;;;;4938023;28;20921;-76
2022/12/26 06:08:01;;;;;;;27.15;22.10;;;8.60;99.90;;;;;;4913655;29;20789;-75
2022/12/26 06:10:28;;;;;;;26.65;22.25;;;8.70;99.90;;;;;;4945604;28;20525;-76
2022/12/26 06:12:55;;;;;;;24.38;20.70;;;8.70;99.90;;;;;;4952466;28;20441;-75
2022/12/26 06:15:21;;;;;;;22.95;20.52;;;8.80;99.90;;;;;;4947231;28;20449;-76
2022/12/26 06:17:47;;;;;;;22.83;19.65;;;8.80;99.90;;;;;;4959667;28;20503;-76
2022/12/26 06:20:12;;;;;;;24.60;19.27;;;8.90;99.90;;;;;;4931939;28;20960;-76
2022/12/26 06:22:38;;;;;;;23.90;20.03;;;8.80;99.90;;;;;;4944877;28;20468;-74
2022/12/26 06:25:04;;;;;;;21.47;18.37;;;8.70;99.90;;;;;;4945088;29;20796;-77
2022/12/26 06:27:30;;;;;;;21.00;18.08;;;8.80;99.90;;;;;;4946515;28;20434;-75
2022/12/26 06:29:56;;;;;;;20.23;17.92;;;8.80;99.90;;;;;;4946029;29;20453;-74
2022/12/26 06:32:21;;;;;;;19.27;17.17;;;8.80;99.90;;;;;;4928207;29;20445;-74
2022/12/26 06:34:47;;;;;;;20.50;18.08;;;8.90;99.90;;;;;;4943788;28;20447;-76
2022/12/26 06:37:13;;;;;;;21.27;18.00;;;8.80;99.90;;;;;;4943263;28;20448;-78
2022/12/26 06:39:38;;;;;;;21.10;17.58;;;8.80;99.90;;;;;;4947312;28;20811;-74
2022/12/26 06:42:04;;;;;;;19.20;16.58;;;8.80;99.90;;;;;;4958872;28;20488;-75
2022/12/26 06:44:30;;;;;;;21.67;16.65;;;8.80;99.90;;;;;;4960421;28;20439;-74
2022/12/26 06:46:56;;;;;;;19.15;14.75;;;8.80;99.90;;;;;;4947804;28;20413;-76
2022/12/26 06:49:24;;;;;;;17.80;14.32;;;8.80;99.90;;;;;;4945933;28;20507;-75
2022/12/26 06:51:50;;;;;;;18.67;13.90;;;9.00;99.90;;;;;;4934728;29;20448;-75
2022/12/26 06:54:22;;;;;;;16.83;14.45;;;8.90;99.90;;;;;;4949805;28;20809;-77
2022/12/26 06:57:12;;;;;;;16.58;13.13;;;8.80;99.90;;;;;;4941015;23;20692;-72
2022/12/26 06:59:38;;;;;;;14.83;12.67;;;8.70;99.90;;;;;;5018705;28;20435;-72
2022/12/26 07:02:04;;;;;;;15.63;12.37;;;8.90;99.90;;;;;;5027404;28;20423;-72
2022/12/26 07:04:29;;;;;;;17.87;12.70;;;8.90;99.90;;;;;;5008234;28;20541;-71
2022/12/26 07:06:55;;;;;;;11.90;10.70;;;8.80;99.90;;;;;;5009455;28;20448;-71
2022/12/26 07:09:21;;;;;;;14.73;11.20;;;8.70;99.90;;;;;;5026408;28;20470;-73
2022/12/26 07:11:48;;;;;;;13.53;9.50;;;8.70;99.90;;;;;;5026890;28;21022;-71
2022/12/26 07:14:15;;;;;;;12.23;9.85;;;8.70;99.90;;;;;;5002321;28;20848;-72
2022/12/26 07:16:43;;;;;;;13.48;10.13;;;8.70;99.90;;;;;;5026650;28;20422;-72
2022/12/26 07:19:13;;;;;;;11.20;8.83;;;8.70;99.90;;;;;;5024577;28;20558;-72
2022/12/26 07:21:40;;;;;;;12.63;8.40;;;8.50;99.90;;;;;;5025523;28;20430;-71
2022/12/26 07:24:06;;;;;;;15.75;8.88;;;8.60;99.90;;;;;;5024636;28;20453;-72
2022/12/26 07:26:32;;;;;;;11.90;7.60;;;8.60;99.90;;;;;;5024428;28;20438;-72
2022/12/26 07:28:58;;;;;;;18.17;9.23;;;8.50;99.90;;;;;;5020027;28;20438;-72
2022/12/26 07:31:26;;;;;;;13.13;7.83;;;8.40;99.90;;;;;;5025263;28;20423;-73
2022/12/26 07:33:54;;;;;;;11.57;8.07;;;8.40;99.90;;;;;;5024923;28;20424;-72
2022/12/26 07:36:21;;;;;;;14.93;8.27;;;8.40;99.90;;;;;;5027178;28;20427;-73
2022/12/26 07:38:47;;;;;;;11.90;7.88;;;8.30;99.90;;;;;;5005436;28;20873;-71
2022/12/26 07:43:57;;;;;;;12.95;8.30;;;8.40;99.90;;;;;;5006625;28;20967;-72
2022/12/26 07:46:23;;;;;;;13.83;7.63;;;8.40;99.90;;;;;;5014612;28;20454;-72
2022/12/26 07:48:48;;;;;;;11.43;7.27;;;8.40;99.90;;;;;;5005065;28;20432;-72
2022/12/26 07:51:14;;;;;;;10.90;7.90;;;8.60;99.90;;;;;;5008813;28;21190;-72
2022/12/26 07:53:40;;;;;;;10.98;7.07;;;8.70;99.90;;;;;;5025254;28;20438;-72
2022/12/26 07:56:05;;;;;;;12.25;6.93;;;8.60;99.90;;;;;;5023546;28;20598;-71
2022/12/26 07:58:31;;;;;;;12.73;6.80;;;8.70;99.90;;;;;;5004385;28;20430;-72
2022/12/26 08:01:01;;;;;;;8.98;6.88;;;8.80;99.90;;;;;;5036146;28;20427;-73
2022/12/26 08:03:26;;;;;;;10.32;6.82;;;8.70;99.90;;;;;;5044270;28;20622;-71
2022/12/26 08:05:52;;;;;;;12.63;6.38;;;8.70;99.90;;;;;;5044112;28;20492;-73
2022/12/26 08:08:18;;;;;;;9.65;6.43;;;8.80;99.90;;;;;;5027178;28;20429;-73
2022/12/26 08:10:44;;;;;;;10.00;5.65;;;8.70;99.90;;;;;;5043824;28;20442;-72
2022/12/26 08:13:09;;;;;;;9.60;5.90;;;8.80;99.90;;;;;;5043503;28;20433;-72
2022/12/26 08:15:38;;;;;;;9.97;5.77;;;8.80;99.90;;;;;;5044379;28;20769;-73
2022/12/26 08:18:04;;;;;;;12.18;5.57;;;8.80;99.90;;;;;;5043723;28;20427;-73
2022/12/26 08:20:30;;;;;;;9.23;5.50;;;8.80;99.90;;;;;;5044959;28;20421;-73
2022/12/26 08:22:55;;;;;;;9.20;5.60;;;8.80;99.90;;;;;;5035656;28;20436;-72
2022/12/26 08:25:21;;;;;;;9.20;5.50;;;8.90;99.90;;;;;;5044563;28;20424;-73
2022/12/26 08:27:46;;;;;;;8.90;5.63;;;8.90;99.90;;;;;;5040433;28;20421;-73
2022/12/26 08:30:12;;;;;;;11.37;6.47;;;9.00;99.90;;;;;;5043483;28;20436;-71
2022/12/26 08:32:38;;;;;;;9.70;5.53;;;8.90;99.90;;;;;;5045093;28;20441;-72
2022/12/26 08:35:04;;;;;;;12.30;6.90;;;8.90;99.90;;;;;;5045236;28;20524;-73
2022/12/26 08:37:30;;;;;;;9.52;5.82;;;9.00;99.90;;;;;;5044997;28;20416;-72
2022/12/26 08:39:55;;;;;;;10.80;6.77;;;9.00;99.90;;;;;;5044308;28;20422;-72
2022/12/26 08:42:21;;;;;;;12.27;6.60;;;8.80;99.90;;;;;;5042158;28;20510;-72
2022/12/26 08:44:47;;;;;;;14.97;6.63;;;8.90;99.90;;;;;;5037813;28;20461;-74
2022/12/26 08:47:14;;;;;;;8.38;5.93;;;8.80;99.90;;;;;;5044390;28;20508;-71
2022/12/26 08:49:40;;;;;;;11.97;6.27;;;8.80;99.90;;;;;;5042072;28;20521;-71
2022/12/26 08:52:06;;;;;;;14.73;6.90;;;8.80;99.90;;;;;;5043113;28;20447;-71
2022/12/26 08:54:32;;;;;;;12.27;6.70;;;8.90;99.90;;;;;;5039668;28;20418;-71
2022/12/26 08:56:57;;;;;;;10.90;6.50;;;8.90;99.90;;;;;;5026253;28;20483;-72
2022/12/26 08:59:23;;;;;;;10.80;6.57;;;8.90;99.90;;;;;;5021723;28;20773;-72
2022/12/26 09:01:49;;;;;;;15.30;7.05;;;8.90;99.90;;;;;;5009528;28;20923;-72
2022/12/26 09:04:14;;;;;;;10.57;6.15;;;8.90;99.90;;;;;;5008297;28;20842;-73
2022/12/26 09:06:40;;;;;;;12.63;7.07;;;8.90;99.90;;;;;;5022846;28;20432;-71
2022/12/26 09:09:10;;;;;;;10.30;6.85;;;8.80;99.90;;;;;;5022200;28;20432;-71
2022/12/26 09:11:42;;;;;;;14.18;7.82;;;8.70;99.90;;;;;;4981430;28;20429;-73
2022/12/26 09:14:12;;;;;;;12.13;6.45;;;8.90;99.90;;;;;;5016144;28;20415;-70
2022/12/26 09:16:45;;;;;;;12.10;6.33;;;8.70;99.90;;;;;;5023245;28;20947;-71
2022/12/26 09:19:13;;;;;;;12.90;5.43;;;8.80;99.90;;;;;;5002426;28;20430;-74
2022/12/26 09:21:39;;;;;;;10.77;6.20;;;8.80;99.90;;;;;;5008385;28;20423;-71
2022/12/26 09:24:09;;;;;;;12.52;4.97;;;8.70;99.90;;;;;;5019210;28;20422;-72
2022/12/26 09:26:35;;;;;;;10.93;4.75;;;8.70;99.90;;;;;;5020107;28;20423;-72
2022/12/26 09:29:01;;;;;;;18.63;5.80;;;8.70;99.90;;;;;;5021083;28;20422;-71
2022/12/26 09:31:30;;;;;;;17.33;4.73;;;8.50;99.90;;;;;;5019159;28;20445;-71
2022/12/26 09:33:56;;;;;;;20.05;5.10;;;8.30;99.90;;;;;;5008970;28;21039;-72
2022/12/26 09:36:24;;;;;;;25.65;4.78;;;8.20;99.90;;;;;;5009268;28;20458;-72
2022/12/26 09:38:51;;;;;;;14.70;3.72;;;7.90;99.90;;;;;;4998521;28;20522;-72
2022/12/26 09:41:54;;;;;;;17.67;3.23;;;7.80;99.90;;;;;;5023877;28;20592;-72
2022/12/26 09:44:39;;;;;;;17.15;3.80;;;7.50;99.90;;;;;;4997898;28;20552;-71
2022/12/26 09:47:29;;;;;;;16.00;3.25;;;7.40;99.90;;;;;;4986769;28;20497;-71
2022/12/26 09:50:18;;;;;;;17.63;3.70;;;7.30;99.90;;;;;;5021841;28;20423;-71
2022/12/26 09:52:48;;;;;;;16.40;3.55;;;7.30;99.90;;;;;;4997610;28;20495;-71
2022/12/26 09:55:23;;;;;;;13.80;3.20;;;7.20;99.90;;;;;;4990560;28;20434;-72
2022/12/26 09:57:51;;;;;;;16.45;3.38;;;7.30;99.90;;;;;;5013189;28;20520;-72
2022/12/26 10:00:31;;;;;;;15.98;2.45;;;7.10;99.90;;;;;;5022905;28;20430;-71
2022/12/26 10:02:58;;;;;;;17.13;3.17;;;7.10;99.90;;;;;;5013554;28;20414;-72
2022/12/26 10:05:52;;;;;;;10.13;2.05;;;7.00;99.90;;;;;;5022381;28;20427;-72
2022/12/26 10:08:44;;;;;;;17.27;4.05;;;7.10;99.90;;;;;;5000687;28;20458;-71
2022/12/26 10:11:30;;;;;;;20.42;3.72;;;7.10;99.90;;;;;;5016822;28;20444;-72
2022/12/26 10:14:02;;;;;;;16.50;4.00;;;7.20;99.90;;;;;;5020844;28;20536;-72
2022/12/26 10:16:46;;;;;;;15.10;2.90;;;7.30;99.90;;;;;;5010095;28;20422;-72
2022/12/26 10:19:34;;;;;;;16.45;3.78;;;7.40;99.90;;;;;;4995054;28;20424;-72
2022/12/26 10:22:10;;;;;;;13.88;3.47;;;7.30;99.90;;;;;;5000436;28;20425;-72
2022/12/26 10:24:39;;;;;;;15.55;3.70;;;7.20;99.90;;;;;;4999191;28;20423;-72
2022/12/26 10:27:12;;;;;;;24.57;4.07;;;7.10;99.90;;;;;;5000709;28;20442;-71
2022/12/26 10:29:46;;;;;;;15.13;4.25;;;7.00;99.90;;;;;;5006776;28;20445;-72
2022/12/26 10:32:19;;;;;;;16.38;3.90;;;7.30;99.90;;;;;;5006610;28;20438;-72
2022/12/26 10:34:48;;;;;;;9.10;2.90;;;7.20;99.90;;;;;;4990869;28;20871;-73
2022/12/26 10:37:34;;;;;;;10.95;2.47;;;6.90;99.90;;;;;;5002320;28;20439;-73
2022/12/26 10:40:20;;;;;;;13.75;2.97;;;6.90;99.90;;;;;;5023183;28;20544;-72
2022/12/26 10:43:03;;;;;;;12.82;2.38;;;6.90;99.90;;;;;;5011122;28;20438;-73
2022/12/26 10:45:53;;;;;;;12.77;2.22;;;6.90;99.90;;;;;;5022983;28;20506;-72
2022/12/26 10:48:19;;;;;;;18.60;3.60;;;6.90;99.90;;;;;;5015496;28;20433;-72
2022/12/26 10:50:48;;;;;;;12.52;2.72;;;6.90;99.90;;;;;;5002843;28;20457;-73
2022/12/26 10:53:15;;;;;;;10.77;2.78;;;7.00;99.90;;;;;;5015831;28;20435;-71
2022/12/26 10:55:41;;;;;;;19.95;3.17;;;7.00;99.90;;;;;;5022128;28;20454;-72
2022/12/26 10:58:28;;;;;;;12.77;3.00;;;6.90;99.90;;;;;;4995164;28;20538;-71
2022/12/26 11:00:53;;;;;;;12.00;2.90;;;7.00;99.90;;;;;;4988047;28;20428;-72
2022/12/26 11:03:20;;;;;;;11.67;3.20;;;7.10;99.90;;;;;;4997985;28;20440;-74
2022/12/26 11:05:49;;;;;;;12.57;2.72;;;7.00;99.90;;;;;;5017072;28;20416;-72
2022/12/26 11:08:19;;;;;;;12.30;2.70;;;7.00;99.90;;;;;;4997839;28;20799;-73
2022/12/26 11:11:12;;;;;;;11.73;2.53;;;7.20;99.90;;;;;;4989529;28;20518;-72
2022/12/26 11:13:44;;;;;;;13.95;2.85;;;7.10;99.90;;;;;;4995424;28;20489;-71
2022/12/26 11:16:10;;;;;;;11.93;2.05;;;7.10;99.90;;;;;;5000144;28;20932;-71
2022/12/26 11:18:37;;;;;;;8.77;1.97;;;7.00;99.90;;;;;;5004403;28;20450;-72
2022/12/26 11:21:24;;;;;;;12.85;3.05;;;7.00;99.90;;;;;;5016652;28;20422;-72
2022/12/26 11:24:10;;;;;;;13.20;2.92;;;6.90;99.90;;;;;;5000737;28;20455;-72
2022/12/26 11:26:37;;;;;;;15.70;3.10;;;6.90;99.90;;;;;;5005852;28;20831;-71
2022/12/26 11:29:09;;;;;;;11.85;2.25;;;6.90;99.90;;;;;;5003266;28;20427;-74
2022/12/26 11:31:36;;;;;;;11.68;2.20;;;7.00;99.90;;;;;;5005133;28;20423;-72
2022/12/26 11:34:14;;;;;;;12.82;2.75;;;7.00;99.90;;;;;;5021557;28;20422;-73
2022/12/26 11:36:45;;;;;;;10.13;2.70;;;7.00;99.90;;;;;;5008828;28;20430;-72
2022/12/26 11:39:35;;;;;;;11.70;3.42;;;7.00;99.90;;;;;;5007465;28;20473;-73
2022/12/26 11:42:17;;;;;;;16.80;3.35;;;7.10;99.90;;;;;;5007130;28;20419;-74
2022/12/26 11:44:45;;;;;;;15.18;4.47;;;7.00;99.90;;;;;;5006948;28;20461;-71
2022/12/26 11:47:13;;;;;;;19.55;4.03;;;7.00;99.90;;;;;;5026673;28;20415;-72
2022/12/26 11:49:59;;;;;;;13.73;3.22;;;7.00;99.90;;;;;;5026477;28;20797;-72
2022/12/26 11:52:54;;;;;;;15.02;3.00;;;7.00;99.90;;;;;;5004961;28;20955;-72
2022/12/26 11:55:23;;;;;;;16.65;3.80;;;7.10;99.90;;;;;;5007084;28;20427;-72
2022/12/26 11:58:13;;;;;;;13.85;3.45;;;7.10;99.90;;;;;;5014318;28;20428;-72
2022/12/26 12:00:42;;;;;;;16.70;2.83;;;7.10;99.90;;;;;;5041980;28;20428;-72
2022/12/26 12:03:17;;;;;;;15.48;3.47;;;7.10;99.90;;;;;;5032258;28;20520;-73
2022/12/26 12:05:51;;;;;;;14.40;2.92;;;7.10;99.90;;;;;;5044405;28;20429;-71
2022/12/26 12:08:56;;;;;;;16.97;3.80;;;7.10;99.90;;;;;;5046075;28;20421;-71
2022/12/26 12:12:02;;;;;;;12.05;2.63;;;7.20;99.90;;;;;;5041049;28;21323;-71
2022/12/26 12:15:08;;;;;;;18.33;3.53;;;7.20;99.90;;;;;;5043473;28;20414;-72
2022/12/26 12:17:59;;;;;;;11.73;3.03;;;7.20;99.90;;;;;;5027352;28;21022;-72
2022/12/26 12:20:40;;;;;;;12.25;2.45;;;7.30;99.90;;;;;;5035812;28;20425;-72
2022/12/26 12:23:14;;;;;;;20.35;4.32;;;7.30;99.90;;;;;;5031938;28;20628;-71
2022/12/26 12:25:48;;;;;;;16.45;3.25;;;7.20;99.90;;;;;;5043604;28;20434;-73
2022/12/26 12:28:31;;;;;;;12.25;3.08;;;7.30;99.90;;;;;;5045591;28;20428;-73
2022/12/26 12:31:29;;;;;;;14.32;3.22;;;7.30;99.90;;;;;;5030433;28;20584;-70
2022/12/26 12:34:10;;;;;;;17.52;3.58;;;7.40;99.90;;;;;;5036523;28;20433;-72
2022/12/26 12:36:58;;;;;;;13.73;3.95;;;7.50;99.90;;;;;;5039705;28;21322;-71
2022/12/26 12:40:01;;;;;;;13.82;3.25;;;7.50;99.90;;;;;;5044854;28;20429;-72
2022/12/26 12:42:48;;;;;;;15.45;3.20;;;7.50;99.90;;;;;;5033577;28;20429;-72
2022/12/26 12:45:41;;;;;;;17.70;3.83;;;7.60;99.90;;;;;;5024277;28;20429;-72
2022/12/26 12:48:49;;;;;;;16.67;2.78;;;7.60;99.90;;;;;;5040534;28;20434;-71
2022/12/26 12:51:39;;;;;;;16.25;3.78;;;7.70;99.90;;;;;;5039783;28;20426;-72
2022/12/26 12:54:47;;;;;;;14.27;3.50;;;7.50;99.90;;;;;;5034370;28;20441;-72
2022/12/26 12:57:21;;;;;;;14.57;3.88;;;7.50;99.90;;;;;;5040747;28;20424;-72
2022/12/26 13:00:11;;;;;;;15.85;4.45;;;7.50;99.90;;;;;;5026390;28;20857;-74
2022/12/26 13:02:44;;;;;;;15.85;3.65;;;7.50;99.90;;;;;;5006339;28;20498;-71
2022/12/26 13:05:19;;;;;;;15.50;3.95;;;7.30;99.90;;;;;;5025113;28;20940;-74
2022/12/26 13:08:08;;;;;;;11.55;2.88;;;7.30;99.90;;;;;;5024578;28;20435;-74
2022/12/26 13:10:42;;;;;;;15.60;3.33;;;7.30;99.90;;;;;;4992492;28;20818;-72
2022/12/26 13:13:24;;;;;;;16.10;3.55;;;7.30;99.90;;;;;;5021893;28;20438;-71
2022/12/26 13:15:55;;;;;;;15.88;3.55;;;7.30;99.90;;;;;;4995962;28;20423;-72
2022/12/26 13:18:25;;;;;;;14.87;3.70;;;7.30;99.90;;;;;;5023738;28;20484;-72
2022/12/26 13:21:04;;;;;;;15.82;4.05;;;7.30;99.90;;;;;;5007035;28;20510;-72
2022/12/26 13:26:32;;;;;;;13.60;3.75;;;7.40;99.90;;;;;;5005838;28;20435;-72
2022/12/26 13:29:07;;;;;;;15.38;3.88;;;7.40;99.90;;;;;;4982080;28;20435;-73
2022/12/26 13:31:35;;;;;;;16.13;3.35;;;7.10;99.90;;;;;;5007385;28;21038;-72
2022/12/26 13:34:02;;;;;;;12.68;3.33;;;7.00;99.90;;;;;;5025087;28;20458;-72
2022/12/26 13:36:37;;;;;;;18.40;3.63;;;7.00;99.90;;;;;;5006985;28;20434;-73
2022/12/26 13:39:03;;;;;;;17.45;3.95;;;7.00;99.90;;;;;;5021987;28;20517;-72
2022/12/26 13:44:17;;;;;;;13.45;3.15;;;7.00;99.90;;;;;;5024939;28;20525;-73
2022/12/26 13:46:46;;;;;;;12.30;2.60;;;6.80;99.90;;;;;;5007819;28;20415;-71
2022/12/26 13:49:35;;;;;;;17.10;3.95;;;6.90;99.90;;;;;;5024263;28;20438;-72
2022/12/26 13:52:10;;;;;;;15.73;3.88;;;6.90;99.90;;;;;;5003435;28;20445;-71
2022/12/26 13:55:05;;;;;;;15.18;3.38;;;6.90;99.90;;;;;;5019378;28;20769;-74
2022/12/26 13:57:39;;;;;;;15.80;3.28;;;6.90;99.90;;;;;;4976969;28;20947;-72
2022/12/26 14:00:13;;;;;;;12.63;2.88;;;6.80;99.90;;;;;;5008553;28;20458;-72
2022/12/26 14:02:48;;;;;;;17.95;3.80;;;6.70;99.90;;;;;;5022857;28;20498;-73
2022/12/26 14:05:26;;;;;;;15.20;3.40;;;6.60;99.90;;;;;;5008191;28;21125;-73
2022/12/26 14:08:02;;;;;;;18.00;3.95;;;6.70;99.90;;;;;;5007523;28;20489;-72
2022/12/26 14:10:44;;;;;;;15.63;3.47;;;6.70;99.90;;;;;;5002177;28;20426;-71
2022/12/26 14:13:32;;;;;;;17.92;3.75;;;6.70;99.90;;;;;;5020768;28;20466;-72
2022/12/26 14:16:11;;;;;;;16.58;4.32;;;6.70;99.90;;;;;;5022842;28;20489;-72
2022/12/26 14:19:00;;;;;;;17.80;3.38;;;6.60;99.90;;;;;;5021973;28;20858;-74
2022/12/26 14:21:42;;;;;;;16.23;3.78;;;6.60;99.90;;;;;;5010086;28;20430;-73
2022/12/26 14:24:21;;;;;;;17.25;3.83;;;6.50;99.90;;;;;;5016934;28;20544;-72
2022/12/26 14:27:21;;;;;;;14.30;3.38;;;6.50;99.90;;;;;;5004464;28;20422;-74
2022/12/26 14:30:17;;;;;;;16.63;3.70;;;6.50;99.90;;;;;;5023790;28;20443;-71
2022/12/26 14:32:46;;;;;;;14.32;2.97;;;6.40;99.90;;;;;;5007840;28;20459;-71
2022/12/26 14:35:42;;;;;;;20.45;4.13;;;6.50;99.90;;;;;;5023424;28;20427;-72
2022/12/26 14:38:33;;;;;;;12.35;4.03;;;6.50;99.90;;;;;;5013876;28;20781;-71
2022/12/26 14:41:03;;;;;;;19.90;5.20;;;6.40;99.90;;;;;;5005824;28;20800;-72
2022/12/26 14:43:35;;;;;;;17.13;3.40;;;6.40;99.90;;;;;;5017940;28;20433;-73
2022/12/26 14:46:28;;;;;;;17.45;3.40;;;6.40;99.90;;;;;;5013234;28;20426;-72
2022/12/26 14:49:15;;;;;;;15.53;3.50;;;6.40;99.90;;;;;;4977523;28;20534;-74
2022/12/26 14:51:41;;;;;;;14.45;2.92;;;6.50;99.90;;;;;;5023963;28;20431;-71
2022/12/26 14:54:24;;;;;;;15.05;2.92;;;6.40;99.90;;;;;;5023436;28;20425;-72
2022/12/26 14:56:51;;;;;;;13.65;2.30;;;6.40;99.90;;;;;;5016705;28;20465;-71
2022/12/26 14:59:30;;;;;;;25.10;5.00;;;6.40;99.90;;;;;;5039457;28;20429;-73
2022/12/26 15:02:15;;;;;;;15.27;2.88;;;6.30;99.90;;;;;;5042384;28;20425;-71
2022/12/26 15:05:16;;;;;;;19.13;3.20;;;6.20;99.90;;;;;;5037039;28;20441;-73
2022/12/26 15:07:51;;;;;;;13.77;3.13;;;6.10;99.90;;;;;;5016011;28;20440;-73
2022/12/26 15:10:41;;;;;;;15.77;4.65;;;6.00;99.90;;;;;;5044262;28;20477;-72
2022/12/26 15:13:42;;;;;;;12.98;3.28;;;6.10;99.90;;;;;;5045327;28;20593;-72
2022/12/26 15:16:20;;;;;;;14.93;3.58;;;5.90;99.90;;;;;;5046432;28;20440;-70
2022/12/26 15:19:01;;;;;;;13.73;3.42;;;5.90;99.90;;;;;;5044925;28;20417;-71
2022/12/26 15:21:30;;;;;;;14.05;2.90;;;5.90;99.90;;;;;;5034605;28;20433;-72
2022/12/26 15:24:01;;;;;;;12.70;3.47;;;5.80;99.90;;;;;;5039971;28;20483;-73
2022/12/26 15:26:52;;;;;;;14.70;2.97;;;5.70;99.90;;;;;;5005970;28;20452;-72
2022/12/26 15:29:36;;;;;;;15.10;5.03;;;5.80;99.90;;;;;;5025799;28;20476;-73